Webster, ND

7:55 PM CDT on October 16, 2019 (GMT -0500)
Devils Lake Municipal | | Change Station

Elev 1453 ft 48.11 °N, 98.91 °W | Updated 59 minutes ago

Clear
Clear
39 °F
Feels Like 32 °F
N
12
Wind Variable Wind from SSE

Today
High -- | Low -- °F
--% Chance of Precip.
Yesterday
High -- | Low -- °F
Precip. -- in
Pressure 28.72 in
Visibility 10.0 miles
Clouds Few 10000 ft
Windchill 32 °F
Dew Point 33 °F
Humidity 79%
Rainfall 0.00 in
Snow Depth Not available.
7:56 AM 6:44 PM
Waning Gibbous, 91% visible
METAR KDVL 162356Z AUTO 16010KT 10SM FEW100 04/01 A2994 RMK AO2 SLP723 T00390006 10050 20028 56015
Pressure 28.72 in
Visibility 10.0 miles
Clouds Few 10000 ft
Windchill 32 °F
Dew Point 33 °F
Humidity 79%
Rainfall 0.00 in
Snow Depth Not available.
7:56 AM 6:44 PM
Waning Gibbous, 91% visible
METAR KDVL 162356Z AUTO 16010KT 10SM FEW100 04/01 A2994 RMK AO2 SLP723 T00390006 10050 20028 56015

Get Severe Weather Alerts

Thanks for signing up!

Be on the lookout for a verification email in your inbox.

You'll start receiving the daily forecast at 6 AM.

×

10-Day Weather Forecast

Almanac

Astronomy

Oct. 16, 2019 Rise Set
Actual Time
Civil Twilight
Nautical Twilight
Astronomical Twilight
Moon
Length of Visible Light
Length of Day
Tomorrow will be .
, % of the Moon is Illuminated

Today's Extremes

State Highs State Lows

Community

WunderPhotos

Category 6

Welcome to Category 6. This is the collective home for Weather Underground's featured writeups by Dr. Jeff Masters (right), Bob Henson (left), Chris Burt, and other regular contributors.

Nearby

Air Quality

  Air Quality AQ Index Pollutant
Not available.

Snow Depth

Station Depth Elevation

Earthquake Activity

City Distance Mag. Time & Date
Minimum magnitude displayed is 2.5.

Coastal Water Temperatures

Place Temperature

Stations

Nearby Weather Stations

Station Location Temp. Windchill Dew Point Humidity Wind Precip. Elev Updated Type
                   

Watches & Warnings

There are currently no watches in effect.